createdAt,value
2019-03-30T00:00:36.542Z,52.00
2019-03-30T00:01:36.526Z,52.00
2019-03-30T00:02:36.521Z,52.00
2019-03-30T00:03:36.507Z,52.00
2019-03-30T00:04:36.487Z,52.00
2019-03-30T00:05:36.654Z,52.00
2019-03-30T00:06:36.472Z,52.00
2019-03-30T00:07:36.454Z,52.00
2019-03-30T00:08:36.446Z,52.00
2019-03-30T00:09:36.437Z,52.00
2019-03-30T00:10:36.420Z,52.00
2019-03-30T00:11:42.602Z,52.00
2019-03-30T00:12:36.402Z,52.00
2019-03-30T00:13:36.385Z,52.00
2019-03-30T00:14:36.379Z,52.00
2019-03-30T00:15:36.372Z,52.00
2019-03-30T00:16:36.350Z,52.00
2019-03-30T00:17:36.351Z,52.00
2019-03-30T00:18:36.330Z,52.00
2019-03-30T00:19:36.324Z,52.00
2019-03-30T00:20:36.311Z,52.00
2019-03-30T00:21:36.297Z,52.00
2019-03-30T00:22:36.328Z,52.00
2019-03-30T00:23:36.271Z,52.00
2019-03-30T00:24:36.259Z,52.00
2019-03-30T00:25:36.249Z,52.00
2019-03-30T00:26:36.245Z,52.00
2019-03-30T00:27:36.223Z,52.00
2019-03-30T00:28:36.225Z,52.00
2019-03-30T00:29:36.206Z,52.00
2019-03-30T00:30:36.195Z,52.00
2019-03-30T00:31:36.183Z,52.00
2019-03-30T00:32:36.168Z,52.00
2019-03-30T00:33:36.166Z,52.00
2019-03-30T00:34:36.153Z,52.00
2019-03-30T00:35:36.134Z,52.00
2019-03-30T00:36:36.128Z,52.00
2019-03-30T00:37:36.110Z,52.00
2019-03-30T00:38:36.119Z,52.00
2019-03-30T00:39:36.092Z,52.00
2019-03-30T00:40:36.073Z,52.00
2019-03-30T00:41:36.065Z,52.00
2019-03-30T00:42:36.055Z,52.00
2019-03-30T00:43:42.591Z,52.00
2019-03-30T00:44:36.027Z,52.00
2019-03-30T00:45:36.025Z,52.00
2019-03-30T00:46:36.007Z,52.00
2019-03-30T00:47:36.003Z,52.00
2019-03-30T00:48:35.985Z,52.00
2019-03-30T00:49:48.575Z,52.00
2019-03-30T00:50:36.958Z,52.00
2019-03-30T00:51:35.954Z,52.00
2019-03-30T00:52:35.938Z,52.00
2019-03-30T00:53:35.933Z,52.00
2019-03-30T00:54:35.961Z,52.00
2019-03-30T00:55:35.908Z,52.00
2019-03-30T00:56:35.893Z,52.00
2019-03-30T00:57:35.894Z,52.00
2019-03-30T00:58:35.881Z,52.00
2019-03-30T00:59:35.857Z,52.00
2019-03-30T01:00:35.855Z,52.00
2019-03-30T01:01:35.840Z,52.00
2019-03-30T01:02:35.822Z,52.00
2019-03-30T01:03:35.812Z,52.00
2019-03-30T01:04:35.805Z,52.00
2019-03-30T01:05:35.970Z,52.00
2019-03-30T01:06:35.783Z,52.00
2019-03-30T01:07:35.769Z,52.00
2019-03-30T01:08:35.751Z,52.00
2019-03-30T01:09:35.745Z,52.00
2019-03-30T01:10:35.732Z,52.00
2019-03-30T01:11:35.766Z,52.00
2019-03-30T01:12:35.707Z,52.00
2019-03-30T01:13:35.697Z,52.00
2019-03-30T01:14:35.685Z,52.00
2019-03-30T01:15:41.765Z,52.00
2019-03-30T01:16:35.665Z,52.00
2019-03-30T01:17:35.690Z,52.00
2019-03-30T01:18:35.638Z,52.00
2019-03-30T01:19:35.625Z,52.00
2019-03-30T01:20:35.616Z,52.00
2019-03-30T01:21:35.610Z,52.00
2019-03-30T01:22:35.594Z,52.00
2019-03-30T01:23:35.589Z,52.00
2019-03-30T01:24:35.576Z,52.00
2019-03-30T01:25:35.556Z,52.00
2019-03-30T01:26:35.545Z,52.00
2019-03-30T01:27:35.554Z,52.00
2019-03-30T01:28:35.526Z,52.00
2019-03-30T01:29:35.516Z,52.00
2019-03-30T01:30:35.501Z,52.00
2019-03-30T01:31:35.497Z,52.00
2019-03-30T01:32:35.481Z,52.00
2019-03-30T01:33:35.475Z,52.00
2019-03-30T01:34:35.457Z,52.00
2019-03-30T01:35:35.446Z,52.00
2019-03-30T01:36:35.437Z,52.00
2019-03-30T01:37:35.427Z,52.00
2019-03-30T01:38:35.443Z,52.00
2019-03-30T01:39:35.427Z,52.00
2019-03-30T01:40:35.451Z,52.00
2019-03-30T01:41:35.378Z,52.00
2019-03-30T01:42:35.367Z,52.00
2019-03-30T01:43:35.364Z,52.00
2019-03-30T01:44:35.339Z,52.00
2019-03-30T01:45:35.364Z,52.00
2019-03-30T01:46:35.317Z,52.00
2019-03-30T01:47:41.396Z,52.00
2019-03-30T01:48:35.298Z,52.00
2019-03-30T01:49:35.312Z,52.00
2019-03-30T01:50:35.272Z,52.00
2019-03-30T01:51:35.270Z,52.00
2019-03-30T01:52:35.254Z,52.00
2019-03-30T01:53:35.239Z,52.00
2019-03-30T01:54:35.229Z,52.00
2019-03-30T01:55:35.251Z,52.00
2019-03-30T01:56:35.200Z,52.00
2019-03-30T01:57:35.266Z,52.00
2019-03-30T01:58:35.184Z,52.00
2019-03-30T01:59:35.166Z,52.00
2019-03-30T02:00:35.155Z,52.00
2019-03-30T02:01:35.184Z,52.00
2019-03-30T02:02:35.138Z,52.00
2019-03-30T02:03:35.125Z,52.00
2019-03-30T02:04:35.114Z,52.00
2019-03-30T02:05:35.099Z,52.00
2019-03-30T02:06:35.091Z,52.00
2019-03-30T02:07:35.119Z,52.00
2019-03-30T02:08:35.070Z,52.00
2019-03-30T02:09:35.052Z,52.00
2019-03-30T02:10:35.041Z,52.00
2019-03-30T02:11:35.028Z,52.00
2019-03-30T02:12:35.021Z,52.00
2019-03-30T02:13:35.012Z,52.00
2019-03-30T02:14:34.994Z,52.00
2019-03-30T02:15:34.989Z,52.00
2019-03-30T02:16:34.976Z,52.00
2019-03-30T02:17:34.967Z,52.00
2019-03-30T02:18:34.959Z,52.00
2019-03-30T02:19:41.031Z,52.00
2019-03-30T02:20:34.934Z,52.00
2019-03-30T02:21:34.920Z,52.00
2019-03-30T02:22:34.909Z,52.00
2019-03-30T02:23:34.932Z,52.00
2019-03-30T02:24:34.882Z,52.00
2019-03-30T02:25:34.872Z,52.00
2019-03-30T02:26:34.864Z,52.00
2019-03-30T02:27:34.848Z,52.00
2019-03-30T02:28:34.837Z,52.00
2019-03-30T02:29:34.888Z,52.00
2019-03-30T02:30:34.813Z,52.00
2019-03-30T02:31:34.801Z,52.00
2019-03-30T02:32:34.790Z,52.00
2019-03-30T02:33:34.784Z,52.00
2019-03-30T02:34:34.766Z,52.00
2019-03-30T02:35:34.792Z,52.00
2019-03-30T02:36:34.744Z,52.00
2019-03-30T02:37:34.737Z,52.00
2019-03-30T02:38:34.729Z,52.00
2019-03-30T02:39:34.707Z,52.00
2019-03-30T02:40:34.699Z,52.00
2019-03-30T02:41:34.731Z,52.00
2019-03-30T02:42:34.679Z,52.00
2019-03-30T02:43:34.664Z,52.00
2019-03-30T02:44:34.655Z,52.00
2019-03-30T02:45:34.653Z,52.00
2019-03-30T02:46:34.696Z,52.00
2019-03-30T02:47:34.789Z,52.00
2019-03-30T02:48:34.605Z,52.00
2019-03-30T02:49:35.111Z,52.00
2019-03-30T02:50:48.121Z,52.00
2019-03-30T02:52:43.493Z,52.00
2019-03-30T02:53:43.446Z,52.00
2019-03-30T02:54:43.436Z,52.00
2019-03-30T02:55:43.415Z,52.00
2019-03-30T02:56:43.409Z,52.00
2019-03-30T02:57:43.397Z,52.00
2019-03-30T02:58:43.546Z,52.00
2019-03-30T02:59:43.370Z,52.00
2019-03-30T03:00:43.356Z,52.00
2019-03-30T03:01:43.346Z,52.00
2019-03-30T03:02:43.343Z,52.00
2019-03-30T03:03:43.326Z,52.00
2019-03-30T03:04:43.323Z,52.00
2019-03-30T03:05:43.318Z,52.00
2019-03-30T03:06:43.290Z,52.00
2019-03-30T03:07:43.288Z,52.00
2019-03-30T03:08:43.264Z,52.00
2019-03-30T03:09:43.273Z,52.00
2019-03-30T03:10:43.256Z,52.00
2019-03-30T03:11:43.231Z,52.00
2019-03-30T03:12:43.221Z,52.00
2019-03-30T03:13:43.217Z,52.00
2019-03-30T03:14:43.200Z,52.00
2019-03-30T03:15:43.190Z,52.00
2019-03-30T03:16:43.194Z,52.00
2019-03-30T03:17:43.168Z,52.00
2019-03-30T03:18:43.148Z,52.00
2019-03-30T03:19:43.150Z,52.00
2019-03-30T03:20:43.131Z,52.00
2019-03-30T03:21:43.157Z,52.00
2019-03-30T03:22:43.108Z,52.00
2019-03-30T03:23:43.096Z,52.00
2019-03-30T03:24:49.176Z,56.00
2019-03-30T03:25:43.071Z,52.00
2019-03-30T03:26:43.083Z,52.00
2019-03-30T03:27:43.064Z,52.00
2019-03-30T03:28:43.036Z,48.00
2019-03-30T03:29:43.938Z,52.00
2019-03-30T03:30:43.016Z,48.00
2019-03-30T03:31:43.019Z,48.00
2019-03-30T03:32:43.035Z,48.00
2019-03-30T03:33:42.998Z,48.00
2019-03-30T03:34:42.974Z,48.00
2019-03-30T03:35:42.974Z,48.00
2019-03-30T03:36:42.946Z,48.00
2019-03-30T03:37:45.605Z,52.00
2019-03-30T03:38:42.926Z,52.00
2019-03-30T03:39:42.918Z,56.00
2019-03-30T03:40:42.905Z,56.00
2019-03-30T03:41:42.897Z,56.00
2019-03-30T03:42:42.878Z,56.00
2019-03-30T03:43:42.865Z,56.00
2019-03-30T03:44:43.033Z,56.00
2019-03-30T03:45:42.843Z,56.00
2019-03-30T03:46:42.839Z,56.00
2019-03-30T03:47:42.823Z,56.00
2019-03-30T03:48:42.807Z,60.00
2019-03-30T03:49:42.798Z,60.00
2019-03-30T03:50:42.817Z,56.00
2019-03-30T03:51:42.771Z,60.00
2019-03-30T03:52:42.768Z,60.00
2019-03-30T03:53:42.749Z,60.00
2019-03-30T03:54:42.738Z,64.00
2019-03-30T03:55:42.751Z,64.00
2019-03-30T03:56:48.806Z,60.00
2019-03-30T03:57:42.709Z,64.00
2019-03-30T03:58:42.691Z,68.00
2019-03-30T03:59:42.688Z,64.00
2019-03-30T04:00:42.676Z,68.00
2019-03-30T04:01:42.699Z,68.00
2019-03-30T04:02:42.643Z,68.00
2019-03-30T04:03:42.634Z,68.00
2019-03-30T04:04:46.873Z,72.00
2019-03-30T04:05:42.615Z,72.00
2019-03-30T04:06:42.602Z,72.00
2019-03-30T04:07:42.600Z,76.00
2019-03-30T04:08:42.583Z,72.00
2019-03-30T04:09:42.573Z,72.00
2019-03-30T04:10:42.557Z,76.00
2019-03-30T04:11:42.545Z,76.00
2019-03-30T04:12:42.596Z,76.00
2019-03-30T04:13:42.524Z,80.00
2019-03-30T04:14:42.516Z,80.00
2019-03-30T04:15:42.510Z,84.00
2019-03-30T04:16:42.483Z,84.00
2019-03-30T04:17:42.475Z,88.00
2019-03-30T04:18:42.480Z,88.00
2019-03-30T04:19:42.454Z,92.00
2019-03-30T04:20:42.444Z,92.00
2019-03-30T04:21:44.678Z,92.00
2019-03-30T04:22:42.420Z,88.00
2019-03-30T04:23:42.425Z,88.00
2019-03-30T04:24:42.403Z,88.00
2019-03-30T04:25:42.385Z,88.00
2019-03-30T04:26:42.367Z,84.00
2019-03-30T04:27:42.518Z,84.00
2019-03-30T04:28:49.059Z,88.00
2019-03-30T04:29:42.352Z,88.00
2019-03-30T04:30:42.340Z,88.00
2019-03-30T04:31:42.319Z,88.00
2019-03-30T04:32:42.305Z,88.00
2019-03-30T04:33:42.302Z,88.00
2019-03-30T04:34:42.284Z,88.00
2019-03-30T04:35:42.442Z,88.00
2019-03-30T04:36:42.267Z,88.00
2019-03-30T04:37:42.327Z,88.00
2019-03-30T04:38:42.231Z,92.00
2019-03-30T04:39:42.227Z,92.00
2019-03-30T04:40:42.212Z,96.00
2019-03-30T04:41:42.238Z,100.00
2019-03-30T04:42:42.196Z,100.00
2019-03-30T04:43:42.175Z,100.00
2019-03-30T04:44:42.162Z,100.00
2019-03-30T04:45:42.152Z,100.00
2019-03-30T04:46:42.151Z,100.00
2019-03-30T04:47:42.169Z,96.00
2019-03-30T04:48:42.119Z,104.00
2019-03-30T04:49:42.110Z,108.00
2019-03-30T04:50:42.093Z,104.00
2019-03-30T04:51:42.081Z,112.00
2019-03-30T04:52:42.070Z,112.00
2019-03-30T04:53:42.071Z,116.00
2019-03-30T04:54:42.052Z,120.00
2019-03-30T04:55:42.043Z,120.00
2019-03-30T04:56:42.025Z,124.00
2019-03-30T04:57:42.057Z,124.00
2019-03-30T04:58:42.007Z,124.00
2019-03-30T04:59:41.989Z,128.00
2019-03-30T05:00:48.068Z,132.00
2019-03-30T05:01:41.969Z,136.00
2019-03-30T05:02:41.959Z,140.00
2019-03-30T05:03:41.952Z,144.00
2019-03-30T05:04:41.936Z,152.00
2019-03-30T05:05:43.169Z,164.00
2019-03-30T05:06:41.914Z,172.00
2019-03-30T05:07:41.904Z,180.00
2019-03-30T05:08:41.928Z,180.00
2019-03-30T05:09:41.884Z,184.00
2019-03-30T05:10:41.863Z,188.00
2019-03-30T05:11:41.853Z,188.00
2019-03-30T05:12:41.841Z,192.00
2019-03-30T05:13:41.830Z,204.00
2019-03-30T05:14:41.837Z,224.00
2019-03-30T05:15:41.820Z,180.00
2019-03-30T05:16:41.796Z,176.00
2019-03-30T05:17:47.608Z,176.00
2019-03-30T05:18:42.773Z,184.00
2019-03-30T05:19:41.804Z,188.00
2019-03-30T05:20:41.752Z,196.00
2019-03-30T05:21:41.738Z,204.00
2019-03-30T05:22:41.727Z,216.00
2019-03-30T05:23:41.714Z,224.00
2019-03-30T05:24:41.710Z,240.00
2019-03-30T05:25:41.702Z,264.00
2019-03-30T05:26:41.683Z,284.00
2019-03-30T05:27:41.674Z,300.00
2019-03-30T05:28:41.663Z,284.00
2019-03-30T05:29:41.697Z,296.00
2019-03-30T05:30:41.638Z,324.00
2019-03-30T05:31:41.627Z,312.00
2019-03-30T05:32:47.704Z,304.00
2019-03-30T05:33:41.604Z,308.00
2019-03-30T05:34:41.592Z,336.00
2019-03-30T05:35:41.587Z,316.00
2019-03-30T05:36:41.571Z,428.00
2019-03-30T05:37:41.555Z,384.00
2019-03-30T05:38:41.543Z,312.00
2019-03-30T05:39:41.531Z,312.00
2019-03-30T05:40:41.530Z,328.00
2019-03-30T05:41:41.521Z,348.00
2019-03-30T05:42:41.507Z,368.00
2019-03-30T05:43:41.489Z,424.00
2019-03-30T05:44:41.499Z,612.00
2019-03-30T05:45:41.474Z,636.00
2019-03-30T05:46:41.472Z,536.00
2019-03-30T05:47:41.448Z,660.00
2019-03-30T05:48:41.438Z,484.00
2019-03-30T05:49:41.418Z,504.00
2019-03-30T05:50:41.410Z,600.00
2019-03-30T05:51:41.404Z,476.00
2019-03-30T05:52:41.395Z,384.00
2019-03-30T05:53:41.376Z,364.00
2019-03-30T05:54:41.362Z,360.00
2019-03-30T05:55:41.352Z,380.00
2019-03-30T05:56:41.340Z,376.00
2019-03-30T05:57:41.365Z,404.00
2019-03-30T05:58:41.320Z,368.00
2019-03-30T05:59:41.305Z,360.00
2019-03-30T06:00:41.296Z,376.00
2019-03-30T06:01:41.290Z,388.00
2019-03-30T06:02:41.272Z,404.00
2019-03-30T06:03:41.432Z,428.00
2019-03-30T06:04:47.344Z,500.00
2019-03-30T06:05:41.241Z,444.00
2019-03-30T06:06:41.227Z,456.00
2019-03-30T06:07:41.217Z,444.00
2019-03-30T06:08:41.202Z,416.00
2019-03-30T06:09:41.205Z,436.00
2019-03-30T06:10:41.182Z,480.00
2019-03-30T06:11:41.172Z,480.00
2019-03-30T06:12:41.157Z,544.00
2019-03-30T06:13:41.143Z,700.00
2019-03-30T06:14:41.169Z,1732.00
2019-03-30T06:15:41.127Z,1304.00
2019-03-30T06:16:41.116Z,592.00
2019-03-30T06:17:41.104Z,616.00
2019-03-30T06:18:41.087Z,512.00
2019-03-30T06:19:41.076Z,472.00
2019-03-30T06:20:41.109Z,436.00
2019-03-30T06:21:41.058Z,428.00
2019-03-30T06:22:41.063Z,440.00
2019-03-30T06:23:41.035Z,444.00
2019-03-30T06:24:41.019Z,476.00
2019-03-30T06:25:41.130Z,684.00
2019-03-30T06:26:40.997Z,600.00
2019-03-30T06:27:41.587Z,644.00
2019-03-30T06:28:40.974Z,588.00
2019-03-30T06:29:40.967Z,712.00
2019-03-30T06:30:40.957Z,1496.00
2019-03-30T06:31:40.952Z,1808.00
2019-03-30T06:32:40.932Z,1800.00
2019-03-30T06:33:40.919Z,1072.00
2019-03-30T06:34:40.909Z,700.00
2019-03-30T06:35:40.900Z,668.00
2019-03-30T06:36:47.279Z,684.00
2019-03-30T06:37:40.877Z,804.00
2019-03-30T06:38:40.868Z,780.00
2019-03-30T06:39:40.850Z,980.00
2019-03-30T06:40:40.840Z,1184.00
2019-03-30T06:41:40.835Z,1076.00
2019-03-30T06:42:40.827Z,1704.00
2019-03-30T06:43:40.804Z,1152.00
2019-03-30T06:44:40.798Z,1264.00
2019-03-30T06:45:40.789Z,1296.00
2019-03-30T06:46:40.773Z,1532.00
2019-03-30T06:47:40.933Z,3156.00
2019-03-30T06:48:40.752Z,2128.00
2019-03-30T06:49:40.738Z,2480.00
2019-03-30T06:50:40.726Z,2036.00
2019-03-30T06:51:40.730Z,1232.00
2019-03-30T06:52:46.044Z,1332.00
2019-03-30T06:53:41.704Z,2200.00
2019-03-30T06:54:40.685Z,2140.00
2019-03-30T06:55:40.677Z,2180.00
2019-03-30T06:56:40.656Z,2076.00
2019-03-30T06:57:40.649Z,2076.00
2019-03-30T06:58:40.646Z,1976.00
2019-03-30T06:59:40.666Z,1960.00
2019-03-30T07:00:40.621Z,1992.00
2019-03-30T07:01:40.605Z,1924.00
2019-03-30T07:02:40.594Z,1912.00
2019-03-30T07:03:40.581Z,1848.00
2019-03-30T07:04:40.569Z,1840.00
2019-03-30T07:05:40.569Z,1848.00
2019-03-30T07:06:40.548Z,1820.00
2019-03-30T07:07:40.536Z,1684.00
2019-03-30T07:08:46.619Z,1640.00
2019-03-30T07:09:40.527Z,1692.00
2019-03-30T07:10:40.515Z,1688.00
2019-03-30T07:11:40.489Z,1940.00
2019-03-30T07:12:40.485Z,2040.00
2019-03-30T07:13:40.474Z,1904.00
2019-03-30T07:14:40.456Z,1920.00
2019-03-30T07:15:40.454Z,1972.00
2019-03-30T07:16:40.477Z,1892.00
2019-03-30T07:17:40.424Z,1820.00
2019-03-30T07:18:40.412Z,1628.00
2019-03-30T07:19:40.474Z,1668.00
2019-03-30T07:20:40.403Z,1740.00
2019-03-30T07:21:40.391Z,1668.00
2019-03-30T07:22:40.405Z,1660.00
2019-03-30T07:23:40.357Z,1488.00
2019-03-30T07:24:40.351Z,1436.00
2019-03-30T07:25:40.340Z,1504.00
2019-03-30T07:26:40.323Z,1496.00
2019-03-30T07:27:40.311Z,1480.00
2019-03-30T07:28:40.312Z,1496.00
2019-03-30T07:29:40.292Z,1460.00
2019-03-30T07:30:40.284Z,1488.00
2019-03-30T07:31:40.269Z,1496.00
2019-03-30T07:32:40.315Z,1468.00
2019-03-30T07:33:40.287Z,1420.00
2019-03-30T07:34:41.831Z,1364.00
2019-03-30T07:35:40.232Z,1392.00
2019-03-30T07:36:40.218Z,1424.00
2019-03-30T07:37:40.196Z,1428.00
2019-03-30T07:38:40.185Z,1424.00
2019-03-30T07:39:40.198Z,1044.00
2019-03-30T07:40:46.255Z,1408.00
2019-03-30T07:41:40.152Z,1348.00
2019-03-30T07:42:40.143Z,1140.00
2019-03-30T07:43:40.136Z,1044.00
2019-03-30T07:44:40.122Z,1020.00
2019-03-30T07:45:40.120Z,1004.00
2019-03-30T07:46:40.101Z,960.00
2019-03-30T07:47:40.090Z,816.00
2019-03-30T07:48:40.073Z,1044.00
2019-03-30T07:49:40.062Z,984.00
2019-03-30T07:50:40.092Z,1004.00
2019-03-30T07:51:40.042Z,964.00
2019-03-30T07:52:40.033Z,1104.00
2019-03-30T07:53:44.692Z,1256.00
2019-03-30T07:54:41.003Z,1244.00
2019-03-30T07:55:39.995Z,944.00
2019-03-30T07:56:40.027Z,820.00
2019-03-30T07:57:39.992Z,788.00
2019-03-30T07:58:40.028Z,716.00
2019-03-30T07:59:39.951Z,760.00
2019-03-30T08:00:39.944Z,720.00
2019-03-30T08:01:39.974Z,776.00
2019-03-30T08:02:39.917Z,820.00
2019-03-30T08:03:39.903Z,980.00
2019-03-30T08:04:39.894Z,1072.00
2019-03-30T08:05:39.885Z,924.00
2019-03-30T08:06:39.870Z,944.00
2019-03-30T08:07:39.904Z,932.00
2019-03-30T08:08:39.852Z,1036.00
2019-03-30T08:09:39.846Z,1040.00
2019-03-30T08:10:39.827Z,1092.00
2019-03-30T08:11:39.819Z,1068.00
2019-03-30T08:12:46.859Z,1208.00
2019-03-30T08:13:39.790Z,1232.00
2019-03-30T08:14:39.785Z,1184.00
2019-03-30T08:15:39.770Z,1196.00
2019-03-30T08:16:39.756Z,1104.00
2019-03-30T08:17:39.745Z,1060.00
2019-03-30T08:18:39.776Z,1100.00
2019-03-30T08:19:39.725Z,1148.00
2019-03-30T08:20:39.711Z,1184.00
2019-03-30T08:21:39.703Z,1176.00
2019-03-30T08:22:39.692Z,1180.00
2019-03-30T08:23:40.799Z,1164.00
2019-03-30T08:24:39.705Z,1116.00
2019-03-30T08:25:39.662Z,1068.00
2019-03-30T08:26:39.652Z,1060.00
2019-03-30T08:27:39.634Z,1064.00
2019-03-30T08:28:39.630Z,1044.00
2019-03-30T08:29:39.617Z,1124.00
2019-03-30T08:30:39.610Z,1160.00
2019-03-30T08:31:39.630Z,1156.00
2019-03-30T08:32:39.581Z,1132.00
2019-03-30T08:33:39.574Z,1132.00
2019-03-30T08:34:39.557Z,1156.00
2019-03-30T08:35:39.546Z,1080.00
2019-03-30T08:36:39.539Z,1084.00
2019-03-30T08:37:39.615Z,1040.00
2019-03-30T08:38:39.515Z,976.00
2019-03-30T08:39:39.505Z,1004.00
2019-03-30T08:40:39.488Z,1000.00
2019-03-30T08:41:39.491Z,984.00
2019-03-30T08:42:39.468Z,996.00
2019-03-30T08:43:39.459Z,1056.00
2019-03-30T08:44:45.532Z,1016.00
2019-03-30T08:45:39.431Z,1032.00
2019-03-30T08:46:39.465Z,1080.00
2019-03-30T08:47:39.416Z,1104.00
2019-03-30T08:48:39.398Z,1100.00
2019-03-30T08:49:39.389Z,1052.00
2019-03-30T08:50:39.375Z,1016.00
2019-03-30T08:51:39.372Z,1044.00
2019-03-30T08:52:39.527Z,1020.00
2019-03-30T08:53:39.344Z,1036.00
2019-03-30T08:54:39.336Z,1040.00
2019-03-30T08:55:39.323Z,1028.00
2019-03-30T08:56:39.312Z,1024.00
2019-03-30T08:57:39.299Z,1032.00
2019-03-30T08:58:39.303Z,1036.00
2019-03-30T08:59:39.282Z,1028.00
2019-03-30T09:00:39.266Z,1012.00
2019-03-30T09:01:39.255Z,992.00
2019-03-30T09:02:39.249Z,984.00
2019-03-30T09:03:39.411Z,980.00
2019-03-30T09:04:39.219Z,968.00
2019-03-30T09:05:39.210Z,976.00
2019-03-30T09:06:39.202Z,984.00
2019-03-30T09:07:39.189Z,976.00
2019-03-30T09:08:39.180Z,968.00
2019-03-30T09:09:39.188Z,960.00
2019-03-30T09:10:39.153Z,960.00
2019-03-30T09:11:39.143Z,972.00
2019-03-30T09:12:39.135Z,980.00
2019-03-30T09:13:39.125Z,984.00
2019-03-30T09:14:39.111Z,992.00
2019-03-30T09:15:39.113Z,1000.00
2019-03-30T09:16:45.184Z,1008.00
2019-03-30T09:17:39.081Z,1008.00
2019-03-30T09:18:39.062Z,1012.00
2019-03-30T09:19:39.060Z,1016.00
2019-03-30T09:20:39.081Z,1020.00
2019-03-30T09:21:39.033Z,1024.00
2019-03-30T09:22:39.020Z,1012.00
2019-03-30T09:23:39.013Z,1012.00
2019-03-30T09:24:38.998Z,1008.00
2019-03-30T09:25:38.985Z,1016.00
2019-03-30T09:26:39.050Z,1028.00
2019-03-30T09:27:38.967Z,1032.00
2019-03-30T09:28:38.957Z,932.00
2019-03-30T09:29:38.946Z,1012.00
2019-03-30T09:30:38.933Z,996.00
2019-03-30T09:31:38.918Z,1008.00
2019-03-30T09:32:38.942Z,996.00
2019-03-30T09:33:38.898Z,1004.00
2019-03-30T09:34:38.888Z,984.00
2019-03-30T09:35:38.872Z,976.00
2019-03-30T09:36:38.929Z,964.00
2019-03-30T09:37:38.879Z,928.00
2019-03-30T09:38:38.856Z,960.00
2019-03-30T09:39:38.828Z,976.00
2019-03-30T09:40:38.813Z,992.00
2019-03-30T09:41:38.808Z,1016.00
2019-03-30T09:42:38.797Z,1028.00
2019-03-30T09:43:38.787Z,1040.00
2019-03-30T09:44:38.782Z,1012.00
2019-03-30T09:45:38.761Z,972.00
2019-03-30T09:46:38.750Z,1024.00
2019-03-30T09:47:38.743Z,1008.00
2019-03-30T09:48:45.113Z,984.00
2019-03-30T09:49:38.732Z,976.00
2019-03-30T09:50:38.703Z,976.00
2019-03-30T09:51:38.693Z,964.00
2019-03-30T09:52:38.682Z,960.00
2019-03-30T09:53:38.671Z,956.00
2019-03-30T09:54:38.663Z,948.00
2019-03-30T09:55:38.690Z,940.00
2019-03-30T09:56:38.638Z,936.00
2019-03-30T09:57:38.624Z,924.00
2019-03-30T09:58:38.617Z,920.00
2019-03-30T09:59:38.601Z,924.00
2019-03-30T10:00:38.594Z,932.00
2019-03-30T10:01:38.621Z,936.00
2019-03-30T10:02:38.566Z,940.00
2019-03-30T10:03:38.561Z,940.00
2019-03-30T10:04:38.554Z,948.00
2019-03-30T10:05:38.536Z,956.00
2019-03-30T10:06:38.531Z,956.00
2019-03-30T10:07:38.688Z,952.00
2019-03-30T10:08:38.505Z,944.00
2019-03-30T10:09:38.495Z,948.00
2019-03-30T10:10:38.479Z,948.00
2019-03-30T10:11:38.466Z,936.00
2019-03-30T10:12:38.459Z,936.00
2019-03-30T10:13:38.488Z,932.00
2019-03-30T10:14:38.435Z,916.00
2019-03-30T10:15:38.432Z,916.00
2019-03-30T10:16:38.410Z,832.00
2019-03-30T10:17:38.399Z,884.00
2019-03-30T10:18:38.393Z,904.00
2019-03-30T10:19:38.561Z,916.00
2019-03-30T10:20:44.458Z,884.00
2019-03-30T10:21:38.357Z,916.00
2019-03-30T10:22:41.820Z,872.00
2019-03-30T10:23:38.336Z,856.00
2019-03-30T10:24:38.715Z,752.00
2019-03-30T10:25:38.484Z,736.00
2019-03-30T10:26:38.305Z,748.00
2019-03-30T10:27:38.292Z,836.00
2019-03-30T10:28:38.280Z,880.00
2019-03-30T10:29:38.268Z,860.00
2019-03-30T10:30:38.256Z,844.00
2019-03-30T10:31:38.254Z,832.00
2019-03-30T10:32:38.240Z,820.00
2019-03-30T10:33:38.223Z,808.00
2019-03-30T10:34:39.768Z,804.00
2019-03-30T10:35:38.199Z,780.00
2019-03-30T10:36:38.196Z,768.00
2019-03-30T10:37:38.178Z,756.00
2019-03-30T10:38:38.168Z,780.00
2019-03-30T10:39:38.155Z,792.00
2019-03-30T10:40:38.200Z,800.00
2019-03-30T10:41:38.138Z,812.00
2019-03-30T10:42:38.126Z,824.00
2019-03-30T10:43:38.115Z,780.00
2019-03-30T10:44:38.106Z,816.00
2019-03-30T10:45:38.087Z,780.00
2019-03-30T10:46:38.244Z,712.00
2019-03-30T10:47:38.073Z,580.00
2019-03-30T10:48:38.052Z,668.00
2019-03-30T10:49:38.049Z,736.00
2019-03-30T10:50:38.029Z,752.00
2019-03-30T10:51:38.025Z,852.00
2019-03-30T10:52:44.284Z,904.00
2019-03-30T10:53:37.999Z,912.00
2019-03-30T10:54:51.731Z,872.00
2019-03-30T10:55:38.974Z,876.00
2019-03-30T10:56:37.962Z,856.00
2019-03-30T10:57:37.957Z,828.00
2019-03-30T10:58:37.948Z,852.00
2019-03-30T10:59:37.932Z,824.00
2019-03-30T11:00:37.916Z,888.00
2019-03-30T11:01:37.912Z,836.00
2019-03-30T11:02:37.938Z,852.00
2019-03-30T11:03:37.885Z,828.00
2019-03-30T11:04:37.927Z,796.00
2019-03-30T11:05:37.865Z,752.00
2019-03-30T11:06:37.851Z,744.00
2019-03-30T11:07:37.870Z,700.00
2019-03-30T11:08:37.840Z,708.00
2019-03-30T11:09:37.820Z,680.00
2019-03-30T11:10:37.807Z,660.00
2019-03-30T11:11:37.796Z,644.00
2019-03-30T11:12:37.789Z,664.00
2019-03-30T11:13:37.944Z,652.00
2019-03-30T11:14:37.765Z,676.00
2019-03-30T11:15:37.751Z,688.00
2019-03-30T11:16:37.743Z,660.00
2019-03-30T11:17:37.734Z,664.00
2019-03-30T11:18:37.719Z,648.00
2019-03-30T11:19:37.723Z,660.00
2019-03-30T11:20:37.695Z,676.00
2019-03-30T11:21:37.681Z,692.00
2019-03-30T11:22:37.668Z,692.00
2019-03-30T11:23:37.658Z,684.00
2019-03-30T11:24:43.935Z,668.00
2019-03-30T11:25:37.634Z,652.00
2019-03-30T11:26:37.626Z,636.00
2019-03-30T11:27:37.619Z,628.00
2019-03-30T11:28:37.607Z,616.00
2019-03-30T11:29:37.594Z,600.00
2019-03-30T11:30:37.590Z,600.00
2019-03-30T11:31:37.570Z,600.00
2019-03-30T11:32:37.554Z,600.00
2019-03-30T11:33:37.545Z,600.00
2019-03-30T11:34:37.538Z,588.00
2019-03-30T11:35:37.699Z,588.00
2019-03-30T11:36:37.515Z,588.00
2019-03-30T11:37:37.502Z,588.00
2019-03-30T11:38:37.490Z,580.00
2019-03-30T11:39:37.479Z,572.00
2019-03-30T11:40:37.470Z,560.00
2019-03-30T11:41:37.461Z,548.00
2019-03-30T11:42:37.444Z,528.00
2019-03-30T11:43:37.614Z,564.00
2019-03-30T11:44:37.426Z,568.00
2019-03-30T11:45:37.414Z,564.00
2019-03-30T11:46:37.396Z,548.00
2019-03-30T11:47:37.386Z,520.00
2019-03-30T11:48:37.756Z,476.00
2019-03-30T11:49:37.382Z,472.00
2019-03-30T11:50:37.351Z,480.00
2019-03-30T11:51:37.344Z,476.00
2019-03-30T11:52:37.331Z,448.00
2019-03-30T11:53:37.315Z,428.00
2019-03-30T11:54:37.310Z,388.00
2019-03-30T11:55:37.316Z,384.00
2019-03-30T11:56:43.376Z,444.00
2019-03-30T11:57:37.271Z,444.00
2019-03-30T11:58:37.266Z,456.00
2019-03-30T11:59:37.248Z,440.00
2019-03-30T12:00:37.239Z,460.00
2019-03-30T12:01:37.245Z,488.00
2019-03-30T12:02:37.219Z,496.00
2019-03-30T12:03:37.211Z,512.00
2019-03-30T12:04:37.273Z,524.00
2019-03-30T12:05:37.187Z,524.00
2019-03-30T12:06:37.167Z,532.00
2019-03-30T12:07:37.162Z,532.00
2019-03-30T12:08:37.154Z,564.00
2019-03-30T12:09:37.141Z,568.00
2019-03-30T12:10:37.123Z,576.00
2019-03-30T12:11:37.112Z,576.00
2019-03-30T12:12:37.617Z,564.00
2019-03-30T12:13:37.090Z,544.00
2019-03-30T12:14:37.086Z,548.00
2019-03-30T12:15:37.072Z,540.00
2019-03-30T12:16:37.058Z,544.00
2019-03-30T12:17:37.052Z,556.00
2019-03-30T12:18:37.033Z,596.00
2019-03-30T12:19:37.067Z,592.00
2019-03-30T12:20:37.013Z,588.00
2019-03-30T12:21:37.007Z,576.00
2019-03-30T12:22:36.995Z,552.00
2019-03-30T12:23:36.978Z,552.00
2019-03-30T12:24:36.977Z,544.00
2019-03-30T12:25:36.995Z,540.00
2019-03-30T12:26:36.943Z,544.00
2019-03-30T12:27:36.933Z,560.00
2019-03-30T12:28:43.015Z,552.00
2019-03-30T12:29:36.915Z,544.00
2019-03-30T12:30:36.911Z,548.00
2019-03-30T12:31:36.893Z,536.00
2019-03-30T12:32:36.918Z,516.00
2019-03-30T12:33:36.863Z,520.00